Time;durP1;ratioP1;P1;durP2;ratioP2;P2;SDS_P1;SDS_P2;PMS_P1;PMS_P2;Temp;Humidity;BMP_temperature;BMP_pressure;BME280_temperature;BME280_humidity;BME280_pressure;Samples;Min_cycle;Max_cycle;Signal;HPM_P1;HPM_P2
2023/01/28 00:00:00;;;;;;;2.4;2.4;;;;;;;3.2;100.0;102680;;;;
2023/01/28 00:01:03;;;;;;;2.4;2.4;;;;;;;3.2;100.0;102680;;;;
2023/01/28 00:02:00;;;;;;;2.4;2.4;;;;;;;3.2;100.0;102680;;;;
2023/01/28 00:03:00;;;;;;;2.4;2.4;;;;;;;3.1;100.0;102670;;;;
2023/01/28 00:04:00;;;;;;;2.4;2.4;;;;;;;3.1;100.0;102670;;;;
2023/01/28 00:05:00;;;;;;;2.4;2.4;;;;;;;3.0;100.0;102680;;;;
2023/01/28 00:06:01;;;;;;;2.4;2.4;;;;;;;3.0;100.0;102680;;;;
2023/01/28 00:07:00;;;;;;;2.4;2.4;;;;;;;3.0;100.0;102680;;;;
2023/01/28 00:08:00;;;;;;;2.4;2.4;;;;;;;3.0;100.0;102680;;;;
2023/01/28 00:09:00;;;;;;;2.4;2.4;;;;;;;3.1;100.0;102680;;;;
2023/01/28 00:10:00;;;;;;;2.4;2.4;;;;;;;3.1;100.0;102680;;;;
2023/01/28 00:11:01;;;;;;;2.4;2.4;;;;;;;3.0;100.0;102680;;;;
2023/01/28 00:12:00;;;;;;;2.4;2.4;;;;;;;3.0;100.0;102680;;;;
2023/01/28 00:13:00;;;;;;;2.4;2.4;;;;;;;3.0;100.0;102680;;;;
2023/01/28 00:14:00;;;;;;;2.4;2.4;;;;;;;3.0;100.0;102680;;;;
2023/01/28 00:15:00;;;;;;;2.4;2.4;;;;;;;3.1;100.0;102690;;;;
2023/01/28 00:16:01;;;;;;;2.4;2.4;;;;;;;3.1;100.0;102690;;;;
2023/01/28 00:17:00;;;;;;;2.4;2.4;;;;;;;3.2;100.0;102690;;;;
2023/01/28 00:18:00;;;;;;;2.4;2.4;;;;;;;3.2;100.0;102690;;;;
2023/01/28 00:19:00;;;;;;;2.4;2.4;;;;;;;3.1;100.0;102690;;;;
2023/01/28 00:20:00;;;;;;;2.3;2.3;;;;;;;3.1;100.0;102690;;;;
2023/01/28 00:21:03;;;;;;;2.3;2.3;;;;;;;3.2;100.0;102700;;;;
2023/01/28 00:22:00;;;;;;;2.3;2.3;;;;;;;3.2;100.0;102700;;;;
2023/01/28 00:23:00;;;;;;;2.3;2.3;;;;;;;3.1;100.0;102690;;;;
2023/01/28 00:24:00;;;;;;;2.3;2.3;;;;;;;3.1;100.0;102690;;;;
2023/01/28 00:25:00;;;;;;;2.3;2.3;;;;;;;3.1;100.0;102690;;;;
2023/01/28 00:26:01;;;;;;;2.3;2.3;;;;;;;3.1;100.0;102690;;;;
2023/01/28 00:27:00;;;;;;;2.3;2.3;;;;;;;3.2;100.0;102690;;;;
2023/01/28 00:28:00;;;;;;;2.3;2.3;;;;;;;3.2;100.0;102690;;;;
2023/01/28 00:29:00;;;;;;;2.3;2.3;;;;;;;3.2;100.0;102690;;;;
2023/01/28 00:30:00;;;;;;;2.3;2.3;;;;;;;3.2;100.0;102690;;;;
2023/01/28 00:31:09;;;;;;;2.3;2.3;;;;;;;3.2;100.0;102690;;;;
2023/01/28 00:32:00;;;;;;;2.3;2.3;;;;;;;3.2;100.0;102690;;;;
2023/01/28 00:33:00;;;;;;;2.3;2.3;;;;;;;3.2;100.0;102690;;;;
2023/01/28 00:34:00;;;;;;;2.3;2.3;;;;;;;3.2;100.0;102690;;;;
2023/01/28 00:35:00;;;;;;;2.3;2.3;;;;;;;3.3;100.0;102690;;;;
2023/01/28 00:36:01;;;;;;;2.3;2.3;;;;;;;3.3;100.0;102690;;;;
2023/01/28 00:37:00;;;;;;;2.3;2.3;;;;;;;3.3;100.0;102700;;;;
2023/01/28 00:38:02;;;;;;;2.3;2.3;;;;;;;3.3;100.0;102700;;;;
2023/01/28 00:39:00;;;;;;;2.3;2.3;;;;;;;3.3;100.0;102700;;;;
2023/01/28 00:40:00;;;;;;;2.5;2.5;;;;;;;3.3;100.0;102700;;;;
2023/01/28 00:41:10;;;;;;;2.5;2.5;;;;;;;3.1;100.0;102700;;;;
2023/01/28 00:42:00;;;;;;;2.5;2.5;;;;;;;3.1;100.0;102700;;;;
2023/01/28 00:43:00;;;;;;;2.5;2.5;;;;;;;3.2;100.0;102700;;;;
2023/01/28 00:44:00;;;;;;;2.5;2.5;;;;;;;3.2;100.0;102700;;;;
2023/01/28 00:45:00;;;;;;;2.5;2.5;;;;;;;3.1;100.0;102700;;;;
2023/01/28 00:46:00;;;;;;;2.5;2.5;;;;;;;3.1;100.0;102700;;;;
2023/01/28 00:47:00;;;;;;;2.5;2.5;;;;;;;3.1;100.0;102700;;;;
2023/01/28 00:48:00;;;;;;;2.5;2.5;;;;;;;3.1;100.0;102700;;;;
2023/01/28 00:49:00;;;;;;;2.5;2.5;;;;;;;3.1;100.0;102700;;;;
2023/01/28 00:50:00;;;;;;;2.5;2.5;;;;;;;3.1;100.0;102700;;;;
2023/01/28 00:51:00;;;;;;;2.5;2.5;;;;;;;3.2;100.0;102700;;;;
2023/01/28 00:52:00;;;;;;;2.5;2.5;;;;;;;3.2;100.0;102700;;;;
2023/01/28 00:53:00;;;;;;;2.5;2.5;;;;;;;3.2;100.0;102700;;;;
2023/01/28 00:54:00;;;;;;;2.5;2.5;;;;;;;3.2;100.0;102700;;;;
2023/01/28 00:55:00;;;;;;;2.5;2.5;;;;;;;3.2;100.0;102710;;;;
2023/01/28 00:56:00;;;;;;;2.5;2.5;;;;;;;3.2;100.0;102710;;;;
2023/01/28 00:57:00;;;;;;;2.5;2.5;;;;;;;3.2;100.0;102710;;;;
2023/01/28 00:58:00;;;;;;;2.5;2.5;;;;;;;3.2;100.0;102710;;;;
2023/01/28 00:59:00;;;;;;;2.5;2.5;;;;;;;3.1;100.0;102710;;;;
2023/01/28 01:00:00;;;;;;;2.4;2.4;;;;;;;3.1;100.0;102710;;;;
2023/01/28 01:01:10;;;;;;;2.4;2.4;;;;;;;3.1;100.0;102710;;;;
2023/01/28 01:02:11;;;;;;;2.4;2.4;;;;;;;3.1;100.0;102710;;;;
2023/01/28 01:03:00;;;;;;;2.4;2.4;;;;;;;3.2;100.0;102710;;;;
2023/01/28 01:04:01;;;;;;;2.4;2.4;;;;;;;3.2;100.0;102710;;;;
2023/01/28 01:05:00;;;;;;;2.4;2.4;;;;;;;3.1;100.0;102710;;;;
2023/01/28 01:06:00;;;;;;;2.4;2.4;;;;;;;3.1;100.0;102710;;;;
2023/01/28 01:07:00;;;;;;;2.4;2.4;;;;;;;3.0;100.0;102710;;;;
2023/01/28 01:08:00;;;;;;;2.4;2.4;;;;;;;3.0;100.0;102710;;;;
2023/01/28 01:09:01;;;;;;;2.4;2.4;;;;;;;3.2;100.0;102710;;;;
2023/01/28 01:10:00;;;;;;;2.4;2.4;;;;;;;3.2;100.0;102710;;;;
2023/01/28 01:11:01;;;;;;;2.4;2.4;;;;;;;3.2;100.0;102700;;;;
2023/01/28 01:12:00;;;;;;;2.4;2.4;;;;;;;3.2;100.0;102700;;;;
2023/01/28 01:13:00;;;;;;;2.4;2.4;;;;;;;3.1;100.0;102710;;;;
2023/01/28 01:14:00;;;;;;;2.4;2.4;;;;;;;3.1;100.0;102710;;;;
2023/01/28 01:15:00;;;;;;;2.4;2.4;;;;;;;3.1;100.0;102700;;;;
2023/01/28 01:16:01;;;;;;;2.4;2.4;;;;;;;3.1;100.0;102700;;;;
2023/01/28 01:17:00;;;;;;;2.4;2.4;;;;;;;3.1;100.0;102700;;;;
2023/01/28 01:18:00;;;;;;;2.4;2.4;;;;;;;3.1;100.0;102700;;;;
2023/01/28 01:19:00;;;;;;;2.4;2.4;;;;;;;3.1;100.0;102700;;;;
2023/01/28 01:20:00;;;;;;;2.4;2.4;;;;;;;3.1;100.0;102700;;;;
2023/01/28 01:21:00;;;;;;;2.4;2.4;;;;;;;3.1;100.0;102710;;;;
2023/01/28 01:22:00;;;;;;;2.4;2.4;;;;;;;3.1;100.0;102710;;;;
2023/01/28 01:23:00;;;;;;;2.4;2.4;;;;;;;3.0;100.0;102700;;;;
2023/01/28 01:24:00;;;;;;;2.4;2.4;;;;;;;3.0;100.0;102700;;;;
2023/01/28 01:25:00;;;;;;;2.4;2.4;;;;;;;3.0;100.0;102700;;;;
2023/01/28 01:26:00;;;;;;;2.4;2.4;;;;;;;3.0;100.0;102700;;;;
2023/01/28 01:27:00;;;;;;;2.4;2.4;;;;;;;3.0;100.0;102700;;;;
2023/01/28 01:28:00;;;;;;;2.4;2.4;;;;;;;3.0;100.0;102700;;;;
2023/01/28 01:29:00;;;;;;;2.4;2.4;;;;;;;3.0;100.0;102700;;;;
2023/01/28 01:30:00;;;;;;;2.4;2.4;;;;;;;3.0;100.0;102700;;;;
2023/01/28 01:31:02;;;;;;;2.4;2.4;;;;;;;3.0;100.0;102700;;;;
2023/01/28 01:32:00;;;;;;;2.4;2.4;;;;;;;3.0;100.0;102700;;;;
2023/01/28 01:33:00;;;;;;;2.4;2.4;;;;;;;3.0;100.0;102690;;;;
2023/01/28 01:34:00;;;;;;;2.4;2.4;;;;;;;3.0;100.0;102690;;;;
2023/01/28 01:35:01;;;;;;;2.4;2.4;;;;;;;3.0;100.0;102690;;;;
2023/01/28 01:36:00;;;;;;;2.4;2.4;;;;;;;3.0;100.0;102690;;;;
2023/01/28 01:37:00;;;;;;;2.4;2.4;;;;;;;3.0;100.0;102700;;;;
2023/01/28 01:38:00;;;;;;;2.4;2.4;;;;;;;3.0;100.0;102700;;;;
2023/01/28 01:39:00;;;;;;;2.4;2.4;;;;;;;3.1;100.0;102710;;;;
2023/01/28 01:40:01;;;;;;;2.2;2.2;;;;;;;3.1;100.0;102710;;;;
2023/01/28 01:41:00;;;;;;;2.2;2.2;;;;;;;3.0;100.0;102710;;;;
2023/01/28 01:42:00;;;;;;;2.2;2.2;;;;;;;3.0;100.0;102710;;;;
2023/01/28 01:43:00;;;;;;;2.2;2.2;;;;;;;3.0;100.0;102710;;;;
2023/01/28 01:44:01;;;;;;;2.2;2.2;;;;;;;3.0;100.0;102710;;;;
2023/01/28 01:45:02;;;;;;;2.2;2.2;;;;;;;2.9;100.0;102710;;;;
2023/01/28 01:46:00;;;;;;;2.2;2.2;;;;;;;2.9;100.0;102710;;;;
2023/01/28 01:47:00;;;;;;;2.2;2.2;;;;;;;3.1;100.0;102710;;;;
2023/01/28 01:48:00;;;;;;;2.2;2.2;;;;;;;3.1;100.0;102710;;;;
2023/01/28 01:49:05;;;;;;;2.2;2.2;;;;;;;3.1;100.0;102710;;;;
2023/01/28 01:50:02;;;;;;;2.2;2.2;;;;;;;3.1;100.0;102710;;;;
2023/01/28 01:51:03;;;;;;;2.2;2.2;;;;;;;3.1;100.0;102710;;;;
2023/01/28 01:52:02;;;;;;;2.2;2.2;;;;;;;3.1;100.0;102710;;;;
2023/01/28 01:53:03;;;;;;;2.2;2.2;;;;;;;3.1;100.0;102710;;;;
2023/01/28 01:54:01;;;;;;;2.2;2.2;;;;;;;3.1;100.0;102710;;;;
2023/01/28 01:55:03;;;;;;;2.2;2.2;;;;;;;3.1;100.0;102700;;;;
2023/01/28 01:56:01;;;;;;;2.2;2.2;;;;;;;3.1;100.0;102700;;;;
2023/01/28 01:57:01;;;;;;;2.2;2.2;;;;;;;3.2;100.0;102700;;;;
2023/01/28 01:58:03;;;;;;;2.2;2.2;;;;;;;3.2;100.0;102700;;;;
2023/01/28 01:59:00;;;;;;;2.2;2.2;;;;;;;3.2;100.0;102710;;;;
2023/01/28 02:00:05;;;;;;;2.7;2.6;;;;;;;3.2;100.0;102710;;;;
2023/01/28 02:01:01;;;;;;;2.7;2.6;;;;;;;3.2;100.0;102710;;;;
2023/01/28 02:02:02;;;;;;;2.7;2.6;;;;;;;3.2;100.0;102710;;;;
2023/01/28 02:03:00;;;;;;;2.7;2.6;;;;;;;3.1;100.0;102710;;;;
2023/01/28 02:04:06;;;;;;;2.7;2.6;;;;;;;3.1;100.0;102710;;;;
2023/01/28 02:05:01;;;;;;;2.7;2.6;;;;;;;3.0;100.0;102710;;;;
2023/01/28 02:06:00;;;;;;;2.7;2.6;;;;;;;3.0;100.0;102710;;;;
2023/01/28 02:07:00;;;;;;;2.7;2.6;;;;;;;3.0;100.0;102710;;;;
2023/01/28 02:09:00;;;;;;;2.7;2.6;;;;;;;3.1;100.0;102710;;;;
2023/01/28 02:10:00;;;;;;;2.7;2.6;;;;;;;3.1;100.0;102710;;;;
2023/01/28 02:11:02;;;;;;;2.7;2.6;;;;;;;3.1;100.0;102710;;;;
2023/01/28 02:12:03;;;;;;;2.7;2.6;;;;;;;3.1;100.0;102710;;;;
2023/01/28 02:13:00;;;;;;;2.7;2.6;;;;;;;3.0;100.0;102710;;;;
2023/01/28 02:14:02;;;;;;;2.7;2.6;;;;;;;3.0;100.0;102710;;;;
2023/01/28 02:15:02;;;;;;;2.7;2.6;;;;;;;3.1;100.0;102710;;;;
2023/01/28 02:16:02;;;;;;;2.7;2.6;;;;;;;3.1;100.0;102710;;;;
2023/01/28 02:17:00;;;;;;;2.7;2.6;;;;;;;3.0;100.0;102720;;;;
2023/01/28 02:18:00;;;;;;;2.7;2.6;;;;;;;3.0;100.0;102720;;;;
2023/01/28 02:19:00;;;;;;;2.7;2.6;;;;;;;3.1;100.0;102710;;;;
2023/01/28 02:20:03;;;;;;;2.3;2.3;;;;;;;3.1;100.0;102710;;;;
2023/01/28 02:21:04;;;;;;;2.3;2.3;;;;;;;3.1;100.0;102720;;;;
2023/01/28 02:22:00;;;;;;;2.3;2.3;;;;;;;3.1;100.0;102720;;;;
2023/01/28 02:23:00;;;;;;;2.3;2.3;;;;;;;3.0;100.0;102720;;;;
2023/01/28 02:24:10;;;;;;;2.3;2.3;;;;;;;3.0;100.0;102720;;;;
2023/01/28 02:25:10;;;;;;;2.3;2.3;;;;;;;3.0;100.0;102720;;;;
2023/01/28 02:26:10;;;;;;;2.3;2.3;;;;;;;3.0;100.0;102720;;;;
2023/01/28 02:27:00;;;;;;;2.3;2.3;;;;;;;3.0;100.0;102720;;;;
2023/01/28 02:28:03;;;;;;;2.3;2.3;;;;;;;3.0;100.0;102720;;;;
2023/01/28 02:29:10;;;;;;;2.3;2.3;;;;;;;3.0;100.0;102720;;;;
2023/01/28 02:30:05;;;;;;;2.3;2.3;;;;;;;3.0;100.0;102720;;;;
2023/01/28 02:31:10;;;;;;;2.3;2.3;;;;;;;3.1;100.0;102710;;;;
2023/01/28 02:32:10;;;;;;;2.3;2.3;;;;;;;3.1;100.0;102710;;;;
2023/01/28 02:33:05;;;;;;;2.3;2.3;;;;;;;3.1;100.0;102710;;;;
2023/01/28 02:34:07;;;;;;;2.3;2.3;;;;;;;3.1;100.0;102710;;;;
2023/01/28 02:35:09;;;;;;;2.3;2.3;;;;;;;3.1;100.0;102710;;;;
2023/01/28 02:36:07;;;;;;;2.3;2.3;;;;;;;3.1;100.0;102710;;;;
2023/01/28 02:37:03;;;;;;;2.3;2.3;;;;;;;3.1;100.0;102710;;;;
2023/01/28 02:38:08;;;;;;;2.3;2.3;;;;;;;3.1;100.0;102710;;;;
2023/01/28 02:39:05;;;;;;;2.3;2.3;;;;;;;3.1;100.0;102710;;;;
2023/01/28 02:40:02;;;;;;;3.1;3.0;;;;;;;3.1;100.0;102710;;;;
2023/01/28 02:41:05;;;;;;;3.1;3.0;;;;;;;3.1;100.0;102700;;;;
2023/01/28 02:42:03;;;;;;;3.1;3.0;;;;;;;3.1;100.0;102700;;;;
2023/01/28 02:43:00;;;;;;;3.1;3.0;;;;;;;3.0;100.0;102710;;;;
2023/01/28 02:44:01;;;;;;;3.1;3.0;;;;;;;3.0;100.0;102710;;;;
2023/01/28 02:45:00;;;;;;;3.1;3.0;;;;;;;3.0;100.0;102710;;;;
2023/01/28 02:48:00;;;;;;;3.1;3.0;;;;;;;3.0;100.0;102710;;;;
2023/01/28 02:49:01;;;;;;;3.1;3.0;;;;;;;3.0;100.0;102710;;;;
2023/01/28 02:50:02;;;;;;;3.1;3.0;;;;;;;3.0;100.0;102710;;;;
2023/01/28 02:51:04;;;;;;;3.1;3.0;;;;;;;3.1;100.0;102710;;;;
2023/01/28 02:52:10;;;;;;;3.1;3.0;;;;;;;3.1;100.0;102710;;;;
2023/01/28 02:54:06;;;;;;;3.1;3.0;;;;;;;3.0;100.0;102710;;;;
2023/01/28 02:55:08;;;;;;;3.1;3.0;;;;;;;3.0;100.0;102710;;;;
2023/01/28 02:56:10;;;;;;;3.1;3.0;;;;;;;3.0;100.0;102710;;;;
2023/01/28 02:57:10;;;;;;;3.1;3.0;;;;;;;3.0;100.0;102710;;;;
2023/01/28 02:58:07;;;;;;;3.1;3.0;;;;;;;3.0;100.0;102710;;;;
2023/01/28 03:00:07;;;;;;;2.7;2.6;;;;;;;3.1;100.0;102710;;;;
2023/01/28 03:01:10;;;;;;;2.7;2.6;;;;;;;3.1;100.0;102710;;;;
2023/01/28 03:02:07;;;;;;;2.7;2.6;;;;;;;3.1;100.0;102710;;;;
2023/01/28 03:03:00;;;;;;;2.7;2.6;;;;;;;3.1;100.0;102710;;;;
2023/01/28 03:04:03;;;;;;;2.7;2.6;;;;;;;3.1;100.0;102710;;;;
2023/01/28 03:05:00;;;;;;;2.7;2.6;;;;;;;3.1;100.0;102710;;;;
2023/01/28 03:06:05;;;;;;;2.7;2.6;;;;;;;3.1;100.0;102710;;;;
2023/01/28 03:07:03;;;;;;;2.7;2.6;;;;;;;3.2;100.0;102720;;;;
2023/01/28 03:09:21;;;;;;;2.7;2.6;;;;;;;3.2;100.0;102720;;;;
2023/01/28 03:10:03;;;;;;;2.7;2.6;;;;;;;3.1;100.0;102710;;;;
2023/01/28 03:37:00;;;;;;;2.4;2.4;;;;;;;3.0;100.0;102720;;;;
2023/01/28 03:38:00;;;;;;;2.4;2.4;;;;;;;3.0;100.0;102720;;;;
2023/01/28 03:39:00;;;;;;;2.2;2.2;;;;;;;3.1;100.0;102720;;;;
2023/01/28 03:40:01;;;;;;;2.2;2.2;;;;;;;3.1;100.0;102720;;;;
2023/01/28 03:41:01;;;;;;;2.2;2.2;;;;;;;3.1;100.0;102720;;;;
2023/01/28 03:42:03;;;;;;;2.2;2.2;;;;;;;3.1;100.0;102720;;;;
2023/01/28 03:43:00;;;;;;;2.2;2.2;;;;;;;3.1;100.0;102710;;;;
2023/01/28 03:45:03;;;;;;;2.2;2.2;;;;;;;3.0;100.0;102710;;;;
2023/01/28 03:46:00;;;;;;;2.2;2.2;;;;;;;3.0;100.0;102710;;;;
2023/01/28 03:47:00;;;;;;;2.2;2.2;;;;;;;3.0;100.0;102710;;;;
2023/01/28 03:48:00;;;;;;;2.2;2.2;;;;;;;3.0;100.0;102710;;;;
2023/01/28 03:49:00;;;;;;;2.2;2.2;;;;;;;3.1;100.0;102720;;;;
2023/01/28 03:50:00;;;;;;;2.2;2.2;;;;;;;3.1;100.0;102720;;;;
2023/01/28 03:51:00;;;;;;;2.2;2.2;;;;;;;3.0;100.0;102710;;;;
2023/01/28 03:52:00;;;;;;;2.2;2.2;;;;;;;3.0;100.0;102710;;;;
2023/01/28 03:53:10;;;;;;;2.2;2.2;;;;;;;2.9;100.0;102710;;;;
2023/01/28 03:54:01;;;;;;;2.2;2.2;;;;;;;2.9;100.0;102710;;;;
2023/01/28 03:55:00;;;;;;;2.2;2.2;;;;;;;2.9;100.0;102720;;;;
2023/01/28 03:56:00;;;;;;;2.2;2.2;;;;;;;2.9;100.0;102720;;;;
2023/01/28 03:57:00;;;;;;;2.2;2.2;;;;;;;2.9;100.0;102720;;;;
2023/01/28 03:58:00;;;;;;;2.2;2.2;;;;;;;2.9;100.0;102720;;;;
2023/01/28 03:59:00;;;;;;;2.5;2.5;;;;;;;3.0;100.0;102720;;;;
2023/01/28 04:00:00;;;;;;;2.5;2.5;;;;;;;3.0;100.0;102720;;;;
2023/01/28 04:01:00;;;;;;;2.5;2.5;;;;;;;3.0;100.0;102720;;;;
2023/01/28 04:02:02;;;;;;;2.5;2.5;;;;;;;3.0;100.0;102720;;;;
2023/01/28 04:03:00;;;;;;;2.5;2.5;;;;;;;2.9;100.0;102730;;;;
2023/01/28 04:04:00;;;;;;;2.5;2.5;;;;;;;2.9;100.0;102730;;;;
2023/01/28 04:05:05;;;;;;;2.5;2.5;;;;;;;3.0;100.0;102730;;;;
2023/01/28 04:06:01;;;;;;;2.5;2.5;;;;;;;3.0;100.0;102730;;;;
2023/01/28 04:07:00;;;;;;;2.5;2.5;;;;;;;3.0;100.0;102740;;;;
2023/01/28 04:08:00;;;;;;;2.5;2.5;;;;;;;3.0;100.0;102740;;;;
2023/01/28 04:09:00;;;;;;;2.5;2.5;;;;;;;3.0;100.0;102740;;;;
2023/01/28 04:10:00;;;;;;;2.5;2.5;;;;;;;3.0;100.0;102740;;;;
2023/01/28 04:11:14;;;;;;;2.5;2.5;;;;;;;3.0;100.0;102750;;;;
2023/01/28 04:12:00;;;;;;;2.5;2.5;;;;;;;3.0;100.0;102750;;;;
2023/01/28 04:13:00;;;;;;;2.5;2.5;;;;;;;3.0;100.0;102750;;;;
2023/01/28 04:14:00;;;;;;;2.5;2.5;;;;;;;3.0;100.0;102750;;;;
2023/01/28 04:15:00;;;;;;;2.5;2.5;;;;;;;3.0;100.0;102750;;;;
2023/01/28 04:16:02;;;;;;;2.5;2.5;;;;;;;3.0;100.0;102750;;;;
2023/01/28 04:17:00;;;;;;;2.5;2.5;;;;;;;2.9;100.0;102750;;;;
2023/01/28 04:18:00;;;;;;;2.5;2.5;;;;;;;2.9;100.0;102750;;;;
2023/01/28 04:19:00;;;;;;;2.8;2.7;;;;;;;3.0;100.0;102750;;;;
2023/01/28 04:20:00;;;;;;;2.8;2.7;;;;;;;3.0;100.0;102750;;;;
2023/01/28 04:21:00;;;;;;;2.8;2.7;;;;;;;3.0;100.0;102740;;;;
2023/01/28 04:22:00;;;;;;;2.8;2.7;;;;;;;3.0;100.0;102740;;;;
2023/01/28 04:23:00;;;;;;;2.8;2.7;;;;;;;3.0;100.0;102740;;;;
2023/01/28 04:24:00;;;;;;;2.8;2.7;;;;;;;3.0;100.0;102740;;;;
2023/01/28 04:25:00;;;;;;;2.8;2.7;;;;;;;2.9;100.0;102740;;;;
2023/01/28 04:26:00;;;;;;;2.8;2.7;;;;;;;2.9;100.0;102740;;;;
2023/01/28 04:27:00;;;;;;;2.8;2.7;;;;;;;3.0;100.0;102750;;;;
2023/01/28 04:28:00;;;;;;;2.8;2.7;;;;;;;3.0;100.0;102750;;;;
2023/01/28 04:29:00;;;;;;;2.8;2.7;;;;;;;2.9;100.0;102750;;;;
2023/01/28 04:30:00;;;;;;;2.8;2.7;;;;;;;2.9;100.0;102750;;;;
2023/01/28 04:31:00;;;;;;;2.8;2.7;;;;;;;2.9;100.0;102740;;;;
2023/01/28 04:32:00;;;;;;;2.8;2.7;;;;;;;2.9;100.0;102740;;;;
2023/01/28 04:33:00;;;;;;;2.8;2.7;;;;;;;2.8;100.0;102750;;;;
2023/01/28 04:34:00;;;;;;;2.8;2.7;;;;;;;2.8;100.0;102750;;;;
2023/01/28 04:35:00;;;;;;;2.8;2.7;;;;;;;2.9;100.0;102740;;;;
2023/01/28 04:36:00;;;;;;;2.8;2.7;;;;;;;2.9;100.0;102740;;;;
2023/01/28 04:37:00;;;;;;;2.8;2.7;;;;;;;2.9;100.0;102740;;;;
2023/01/28 04:38:00;;;;;;;2.8;2.7;;;;;;;2.9;100.0;102740;;;;
2023/01/28 04:39:00;;;;;;;2.3;2.3;;;;;;;2.9;100.0;102740;;;;
2023/01/28 04:40:00;;;;;;;2.3;2.3;;;;;;;2.9;100.0;102740;;;;
2023/01/28 04:41:00;;;;;;;2.3;2.3;;;;;;;2.9;100.0;102730;;;;
2023/01/28 04:42:00;;;;;;;2.3;2.3;;;;;;;2.9;100.0;102730;;;;
2023/01/28 04:43:00;;;;;;;2.3;2.3;;;;;;;2.9;100.0;102730;;;;
2023/01/28 04:44:00;;;;;;;2.3;2.3;;;;;;;2.9;100.0;102730;;;;
2023/01/28 04:45:00;;;;;;;2.3;2.3;;;;;;;2.8;100.0;102730;;;;
2023/01/28 04:46:00;;;;;;;2.3;2.3;;;;;;;2.8;100.0;102730;;;;
2023/01/28 04:47:00;;;;;;;2.3;2.3;;;;;;;2.9;100.0;102730;;;;
2023/01/28 04:48:00;;;;;;;2.3;2.3;;;;;;;2.9;100.0;102730;;;;
2023/01/28 04:49:01;;;;;;;2.3;2.3;;;;;;;2.9;100.0;102740;;;;
2023/01/28 04:50:00;;;;;;;2.3;2.3;;;;;;;2.9;100.0;102740;;;;
2023/01/28 04:51:00;;;;;;;2.3;2.3;;;;;;;2.8;100.0;102740;;;;
2023/01/28 04:52:00;;;;;;;2.3;2.3;;;;;;;2.8;100.0;102740;;;;
2023/01/28 04:53:00;;;;;;;2.3;2.3;;;;;;;2.7;100.0;102750;;;;
2023/01/28 04:54:00;;;;;;;2.3;2.3;;;;;;;2.7;100.0;102750;;;;
2023/01/28 04:55:01;;;;;;;2.3;2.3;;;;;;;2.6;100.0;102750;;;;
2023/01/28 04:56:00;;;;;;;2.3;2.3;;;;;;;2.6;100.0;102750;;;;
2023/01/28 04:57:00;;;;;;;2.3;2.3;;;;;;;2.6;100.0;102750;;;;
2023/01/28 04:58:00;;;;;;;2.3;2.3;;;;;;;2.6;100.0;102750;;;;
2023/01/28 04:59:01;;;;;;;2.3;2.3;;;;;;;2.7;100.0;102750;;;;
2023/01/28 05:00:00;;;;;;;2.3;2.3;;;;;;;2.7;100.0;102750;;;;
2023/01/28 05:01:00;;;;;;;2.3;2.3;;;;;;;2.7;100.0;102760;;;;
2023/01/28 05:02:00;;;;;;;2.3;2.3;;;;;;;2.7;100.0;102760;;;;
2023/01/28 05:03:00;;;;;;;2.3;2.3;;;;;;;2.7;100.0;102760;;;;
2023/01/28 05:04:04;;;;;;;2.3;2.3;;;;;;;2.7;100.0;102760;;;;
2023/01/28 05:05:03;;;;;;;2.3;2.3;;;;;;;2.7;100.0;102760;;;;
2023/01/28 05:06:00;;;;;;;2.3;2.3;;;;;;;2.7;100.0;102760;;;;
2023/01/28 05:07:00;;;;;;;2.3;2.3;;;;;;;2.8;100.0;102760;;;;
2023/01/28 05:08:00;;;;;;;2.3;2.3;;;;;;;2.8;100.0;102760;;;;
2023/01/28 05:09:00;;;;;;;2.3;2.3;;;;;;;2.7;100.0;102750;;;;
2023/01/28 05:10:00;;;;;;;2.3;2.3;;;;;;;2.7;100.0;102750;;;;
2023/01/28 05:11:00;;;;;;;2.3;2.3;;;;;;;2.8;100.0;102750;;;;
2023/01/28 05:12:00;;;;;;;2.3;2.3;;;;;;;2.8;100.0;102750;;;;
2023/01/28 05:13:00;;;;;;;2.3;2.3;;;;;;;2.6;100.0;102750;;;;
2023/01/28 05:14:01;;;;;;;2.3;2.3;;;;;;;2.6;100.0;102750;;;;
2023/01/28 05:15:00;;;;;;;2.3;2.3;;;;;;;2.7;100.0;102760;;;;
2023/01/28 05:16:00;;;;;;;2.3;2.3;;;;;;;2.7;100.0;102760;;;;
2023/01/28 05:17:00;;;;;;;2.3;2.3;;;;;;;2.7;100.0;102760;;;;
2023/01/28 05:18:00;;;;;;;2.3;2.3;;;;;;;2.7;100.0;102760;;;;
2023/01/28 05:19:00;;;;;;;2.9;2.8;;;;;;;2.7;100.0;102770;;;;
2023/01/28 05:20:00;;;;;;;2.9;2.8;;;;;;;2.7;100.0;102770;;;;
2023/01/28 05:21:00;;;;;;;2.9;2.8;;;;;;;2.7;100.0;102770;;;;
2023/01/28 05:22:00;;;;;;;2.9;2.8;;;;;;;2.7;100.0;102770;;;;
2023/01/28 05:23:00;;;;;;;2.9;2.8;;;;;;;2.8;100.0;102770;;;;
2023/01/28 05:24:00;;;;;;;2.9;2.8;;;;;;;2.8;100.0;102770;;;;
2023/01/28 05:25:02;;;;;;;2.9;2.8;;;;;;;2.6;100.0;102760;;;;
2023/01/28 05:26:00;;;;;;;2.9;2.8;;;;;;;2.6;100.0;102760;;;;
2023/01/28 05:27:00;;;;;;;2.9;2.8;;;;;;;2.7;100.0;102760;;;;
2023/01/28 05:28:00;;;;;;;2.9;2.8;;;;;;;2.7;100.0;102760;;;;
2023/01/28 05:29:00;;;;;;;2.9;2.8;;;;;;;2.6;100.0;102760;;;;
2023/01/28 05:30:00;;;;;;;2.9;2.8;;;;;;;2.6;100.0;102760;;;;
2023/01/28 05:31:02;;;;;;;2.9;2.8;;;;;;;2.5;100.0;102750;;;;
2023/01/28 05:32:00;;;;;;;2.9;2.8;;;;;;;2.5;100.0;102750;;;;
2023/01/28 05:33:00;;;;;;;2.9;2.8;;;;;;;2.3;100.0;102750;;;;
2023/01/28 05:34:00;;;;;;;2.9;2.8;;;;;;;2.3;100.0;102750;;;;
2023/01/28 05:35:00;;;;;;;2.9;2.8;;;;;;;2.6;100.0;102750;;;;
2023/01/28 05:36:00;;;;;;;2.9;2.8;;;;;;;2.6;100.0;102750;;;;
2023/01/28 05:37:00;;;;;;;2.9;2.8;;;;;;;2.6;100.0;102740;;;;
2023/01/28 05:38:00;;;;;;;2.9;2.8;;;;;;;2.6;100.0;102740;;;;
2023/01/28 05:39:00;;;;;;;2.7;2.6;;;;;;;2.6;100.0;102750;;;;
2023/01/28 05:40:00;;;;;;;2.7;2.6;;;;;;;2.6;100.0;102750;;;;
2023/01/28 05:41:00;;;;;;;2.7;2.6;;;;;;;2.6;100.0;102750;;;;
2023/01/28 05:42:00;;;;;;;2.7;2.6;;;;;;;2.6;100.0;102750;;;;
2023/01/28 05:43:00;;;;;;;2.7;2.6;;;;;;;2.6;100.0;102750;;;;
2023/01/28 05:44:00;;;;;;;2.7;2.6;;;;;;;2.6;100.0;102750;;;;
2023/01/28 05:45:00;;;;;;;2.7;2.6;;;;;;;2.7;100.0;102740;;;;
2023/01/28 05:46:00;;;;;;;2.7;2.6;;;;;;;2.7;100.0;102740;;;;
2023/01/28 05:47:00;;;;;;;2.7;2.6;;;;;;;2.7;100.0;102740;;;;
2023/01/28 05:48:00;;;;;;;2.7;2.6;;;;;;;2.7;100.0;102740;;;;
2023/01/28 05:49:00;;;;;;;2.7;2.6;;;;;;;2.5;100.0;102740;;;;
2023/01/28 05:50:00;;;;;;;2.7;2.6;;;;;;;2.5;100.0;102740;;;;
2023/01/28 05:51:00;;;;;;;2.7;2.6;;;;;;;2.7;100.0;102750;;;;
2023/01/28 05:52:01;;;;;;;2.7;2.6;;;;;;;2.7;100.0;102750;;;;
2023/01/28 05:53:00;;;;;;;2.7;2.6;;;;;;;2.6;100.0;102750;;;;
2023/01/28 05:54:00;;;;;;;2.7;2.6;;;;;;;2.6;100.0;102750;;;;
2023/01/28 05:55:00;;;;;;;2.7;2.6;;;;;;;2.6;100.0;102750;;;;
2023/01/28 05:56:00;;;;;;;2.7;2.6;;;;;;;2.6;100.0;102750;;;;
2023/01/28 05:57:00;;;;;;;2.7;2.6;;;;;;;2.7;100.0;102750;;;;
2023/01/28 05:58:00;;;;;;;2.7;2.6;;;;;;;2.7;100.0;102750;;;;
2023/01/28 05:59:00;;;;;;;2.7;2.6;;;;;;;2.5;100.0;102760;;;;
2023/01/28 06:00:00;;;;;;;2.7;2.6;;;;;;;2.5;100.0;102760;;;;
2023/01/28 06:01:00;;;;;;;2.7;2.6;;;;;;;2.5;100.0;102760;;;;
2023/01/28 06:02:00;;;;;;;2.7;2.6;;;;;;;2.5;100.0;102760;;;;
2023/01/28 06:03:00;;;;;;;2.7;2.6;;;;;;;2.5;100.0;102760;;;;
2023/01/28 06:04:00;;;;;;;2.7;2.6;;;;;;;2.5;100.0;102760;;;;
2023/01/28 06:05:00;;;;;;;2.7;2.6;;;;;;;2.5;100.0;102760;;;;
2023/01/28 06:06:00;;;;;;;2.7;2.6;;;;;;;2.5;100.0;102760;;;;
2023/01/28 06:07:00;;;;;;;2.7;2.6;;;;;;;2.4;100.0;102760;;;;
2023/01/28 06:08:00;;;;;;;2.7;2.6;;;;;;;2.4;100.0;102760;;;;
2023/01/28 06:09:00;;;;;;;2.7;2.6;;;;;;;2.4;100.0;102760;;;;
2023/01/28 06:10:00;;;;;;;2.7;2.6;;;;;;;2.4;100.0;102760;;;;
2023/01/28 06:11:00;;;;;;;2.7;2.6;;;;;;;2.3;100.0;102760;;;;
2023/01/28 06:12:00;;;;;;;2.7;2.6;;;;;;;2.3;100.0;102760;;;;
2023/01/28 06:13:01;;;;;;;2.7;2.6;;;;;;;2.4;100.0;102760;;;;
2023/01/28 06:14:00;;;;;;;2.7;2.6;;;;;;;2.4;100.0;102760;;;;
2023/01/28 06:15:00;;;;;;;2.7;2.6;;;;;;;2.4;100.0;102760;;;;
2023/01/28 06:16:00;;;;;;;2.7;2.6;;;;;;;2.4;100.0;102760;;;;
2023/01/28 06:17:00;;;;;;;2.7;2.6;;;;;;;2.4;100.0;102760;;;;
2023/01/28 06:18:00;;;;;;;2.7;2.6;;;;;;;2.4;100.0;102760;;;;
2023/01/28 06:19:00;;;;;;;2.9;2.8;;;;;;;2.5;100.0;102760;;;;
2023/01/28 06:20:00;;;;;;;2.9;2.8;;;;;;;2.5;100.0;102760;;;;
2023/01/28 06:21:00;;;;;;;2.9;2.8;;;;;;;2.5;100.0;102760;;;;
2023/01/28 06:22:00;;;;;;;2.9;2.8;;;;;;;2.5;100.0;102760;;;;
2023/01/28 06:23:00;;;;;;;2.9;2.8;;;;;;;2.5;100.0;102760;;;;
2023/01/28 06:24:00;;;;;;;2.9;2.8;;;;;;;2.5;100.0;102760;;;;
2023/01/28 06:25:00;;;;;;;2.9;2.8;;;;;;;2.5;100.0;102760;;;;
2023/01/28 06:26:00;;;;;;;2.9;2.8;;;;;;;2.5;100.0;102760;;;;
2023/01/28 06:27:00;;;;;;;2.9;2.8;;;;;;;2.5;100.0;102760;;;;
2023/01/28 06:28:00;;;;;;;2.9;2.8;;;;;;;2.5;100.0;102760;;;;
2023/01/28 06:29:00;;;;;;;2.9;2.8;;;;;;;2.4;100.0;102760;;;;
2023/01/28 06:30:00;;;;;;;2.9;2.8;;;;;;;2.4;100.0;102760;;;;
2023/01/28 06:31:00;;;;;;;2.9;2.8;;;;;;;2.5;100.0;102760;;;;
2023/01/28 06:32:00;;;;;;;2.9;2.8;;;;;;;2.5;100.0;102760;;;;
2023/01/28 06:33:00;;;;;;;2.9;2.8;;;;;;;2.5;100.0;102760;;;;
2023/01/28 06:34:00;;;;;;;2.9;2.8;;;;;;;2.5;100.0;102760;;;;
2023/01/28 06:35:00;;;;;;;2.9;2.8;;;;;;;2.5;100.0;102760;;;;
2023/01/28 06:36:02;;;;;;;2.9;2.8;;;;;;;2.5;100.0;102760;;;;
2023/01/28 06:37:00;;;;;;;2.9;2.8;;;;;;;2.5;100.0;102760;;;;
2023/01/28 06:38:00;;;;;;;2.9;2.8;;;;;;;2.5;100.0;102760;;;;
2023/01/28 06:39:00;;;;;;;2.9;2.8;;;;;;;2.4;100.0;102760;;;;
2023/01/28 06:40:00;;;;;;;2.9;2.8;;;;;;;2.4;100.0;102760;;;;
2023/01/28 06:41:01;;;;;;;2.9;2.8;;;;;;;2.5;100.0;102760;;;;
2023/01/28 06:42:00;;;;;;;2.9;2.8;;;;;;;2.5;100.0;102760;;;;
2023/01/28 06:43:00;;;;;;;2.9;2.8;;;;;;;2.5;100.0;102770;;;;
2023/01/28 06:44:00;;;;;;;2.9;2.8;;;;;;;2.5;100.0;102770;;;;
2023/01/28 06:45:00;;;;;;;2.9;2.8;;;;;;;2.5;100.0;102770;;;;
2023/01/28 06:46:00;;;;;;;2.9;2.8;;;;;;;2.5;100.0;102770;;;;
2023/01/28 06:47:00;;;;;;;2.9;2.8;;;;;;;2.5;100.0;102760;;;;
2023/01/28 06:48:00;;;;;;;2.9;2.8;;;;;;;2.5;100.0;102760;;;;
2023/01/28 06:49:00;;;;;;;2.9;2.8;;;;;;;2.5;100.0;102760;;;;
2023/01/28 06:50:00;;;;;;;2.9;2.8;;;;;;;2.5;100.0;102760;;;;
2023/01/28 06:51:00;;;;;;;2.9;2.8;;;;;;;2.5;100.0;102760;;;;
2023/01/28 06:52:00;;;;;;;2.9;2.8;;;;;;;2.5;100.0;102760;;;;
2023/01/28 06:53:00;;;;;;;2.9;2.8;;;;;;;2.5;100.0;102770;;;;
2023/01/28 06:54:00;;;;;;;2.9;2.8;;;;;;;2.5;100.0;102770;;;;
2023/01/28 06:55:00;;;;;;;2.9;2.8;;;;;;;2.3;100.0;102770;;;;
2023/01/28 06:56:00;;;;;;;2.9;2.8;;;;;;;2.3;100.0;102770;;;;
2023/01/28 06:57:00;;;;;;;2.9;2.8;;;;;;;2.4;100.0;102770;;;;
2023/01/28 06:58:00;;;;;;;2.4;2.4;;;;;;;2.4;100.0;102770;;;;
2023/01/28 06:59:00;;;;;;;2.4;2.4;;;;;;;2.4;100.0;102770;;;;
2023/01/28 07:00:00;;;;;;;2.4;2.4;;;;;;;2.4;100.0;102770;;;;
2023/01/28 07:01:00;;;;;;;2.4;2.4;;;;;;;2.4;100.0;102770;;;;
2023/01/28 07:02:00;;;;;;;2.4;2.4;;;;;;;2.4;100.0;102770;;;;